Aviation Digital Data Service (ADDS)

Output produced by METARs form (0440 UTC 22 April 2018)
found at http://aviationweather.gov/adds/metars/
 
KLFT 212320Z 2200/2224 13008KT P6SM SCT035 OVC050 
     FM220800 16008KT P6SM VCTS OVC015CB 
     TEMPO 2209/2213 VRB10G20KT 2SM TSRA OVC007CB 
     FM221400 28011KT P6SM VCSH OVC015 
     FM221800 26017G25KT P6SM SKC